sensor_id;sensor_type;location;lat;lon;timestamp;pressure;altitude;pressure_sealevel;temperature;humidity
78741;BME280;68062;48.726;9.370;2023-03-03T00:00:58;98959.88;;;4.75;72.09
78741;BME280;68062;48.726;9.370;2023-03-03T00:03:25;98951.59;;;4.83;71.14
78741;BME280;68062;48.726;9.370;2023-03-03T00:05:52;98958.50;;;4.88;71.52
78741;BME280;68062;48.726;9.370;2023-03-03T00:08:21;98955.94;;;4.88;70.73
78741;BME280;68062;48.726;9.370;2023-03-03T00:10:48;98951.75;;;4.90;70.25
78741;BME280;68062;48.726;9.370;2023-03-03T00:13:21;98948.94;;;4.79;71.64
78741;BME280;68062;48.726;9.370;2023-03-03T00:15:50;98957.47;;;4.81;71.27
78741;BME280;68062;48.726;9.370;2023-03-03T00:18:20;98964.03;;;4.37;72.46
78741;BME280;68062;48.726;9.370;2023-03-03T00:20:51;98958.59;;;4.57;71.31
78741;BME280;68062;48.726;9.370;2023-03-03T00:23:27;98963.00;;;4.63;70.92
78741;BME280;68062;48.726;9.370;2023-03-03T00:25:56;98955.22;;;4.58;71.93
78741;BME280;68062;48.726;9.370;2023-03-03T00:28:26;98927.69;;;4.43;71.15
78741;BME280;68062;48.726;9.370;2023-03-03T00:30:54;98973.19;;;4.64;71.57
78741;BME280;68062;48.726;9.370;2023-03-03T00:33:28;98958.50;;;4.54;72.00
78741;BME280;68062;48.726;9.370;2023-03-03T00:35:59;98940.13;;;4.32;72.06
78741;BME280;68062;48.726;9.370;2023-03-03T00:38:36;98963.94;;;4.34;72.39
78741;BME280;68062;48.726;9.370;2023-03-03T00:41:10;98965.31;;;4.21;72.50
78741;BME280;68062;48.726;9.370;2023-03-03T00:43:41;98956.88;;;4.24;72.20
78741;BME280;68062;48.726;9.370;2023-03-03T00:46:08;98970.19;;;4.13;72.51
78741;BME280;68062;48.726;9.370;2023-03-03T00:48:41;98962.94;;;4.27;71.24
78741;BME280;68062;48.726;9.370;2023-03-03T00:51:20;98956.22;;;4.31;72.34
78741;BME280;68062;48.726;9.370;2023-03-03T00:53:50;98958.00;;;4.34;72.26
78741;BME280;68062;48.726;9.370;2023-03-03T00:56:17;98955.84;;;3.55;74.61
78741;BME280;68062;48.726;9.370;2023-03-03T00:58:43;98958.28;;;3.82;73.63
78741;BME280;68062;48.726;9.370;2023-03-03T01:01:12;98963.16;;;4.05;72.36
78741;BME280;68062;48.726;9.370;2023-03-03T01:03:39;98959.97;;;4.12;71.23
78741;BME280;68062;48.726;9.370;2023-03-03T01:06:05;98925.50;;;3.32;72.16
78741;BME280;68062;48.726;9.370;2023-03-03T01:08:32;98946.38;;;3.50;72.93
78741;BME280;68062;48.726;9.370;2023-03-03T01:11:05;98964.44;;;3.89;71.51
78741;BME280;68062;48.726;9.370;2023-03-03T01:13:35;98943.09;;;3.83;71.40
78741;BME280;68062;48.726;9.370;2023-03-03T01:16:03;98953.69;;;3.68;71.32
78741;BME280;68062;48.726;9.370;2023-03-03T01:18:30;98959.81;;;3.75;71.55
78741;BME280;68062;48.726;9.370;2023-03-03T01:20:56;98952.47;;;3.86;71.41
78741;BME280;68062;48.726;9.370;2023-03-03T01:23:23;98950.81;;;3.87;71.03
78741;BME280;68062;48.726;9.370;2023-03-03T01:25:50;98957.75;;;3.92;71.29
78741;BME280;68062;48.726;9.370;2023-03-03T01:28:20;98961.69;;;3.52;71.58
78741;BME280;68062;48.726;9.370;2023-03-03T01:30:47;98959.50;;;3.64;71.28
78741;BME280;68062;48.726;9.370;2023-03-03T01:33:15;98956.47;;;3.76;71.46
78741;BME280;68062;48.726;9.370;2023-03-03T01:35:43;98954.00;;;3.79;70.85
78741;BME280;68062;48.726;9.370;2023-03-03T01:38:09;98954.09;;;3.82;70.74
78741;BME280;68062;48.726;9.370;2023-03-03T01:40:36;98954.03;;;3.81;70.67
78741;BME280;68062;48.726;9.370;2023-03-03T01:43:02;98943.50;;;3.68;71.02
78741;BME280;68062;48.726;9.370;2023-03-03T01:45:43;98958.75;;;3.68;70.75
78741;BME280;68062;48.726;9.370;2023-03-03T01:48:32;98958.84;;;3.72;71.15
78741;BME280;68062;48.726;9.370;2023-03-03T01:51:01;98952.69;;;3.63;71.38
78741;BME280;68062;48.726;9.370;2023-03-03T01:53:33;98949.66;;;3.46;72.01
78741;BME280;68062;48.726;9.370;2023-03-03T01:56:01;98954.78;;;3.48;72.26
78741;BME280;68062;48.726;9.370;2023-03-03T01:58:30;98950.66;;;3.51;72.36
78741;BME280;68062;48.726;9.370;2023-03-03T02:01:03;98939.22;;;3.37;72.67
78741;BME280;68062;48.726;9.370;2023-03-03T02:03:30;98960.44;;;3.10;73.62
78741;BME280;68062;48.726;9.370;2023-03-03T02:05:59;98952.19;;;3.17;73.91
78741;BME280;68062;48.726;9.370;2023-03-03T02:08:29;98940.75;;;3.04;74.22
78741;BME280;68062;48.726;9.370;2023-03-03T02:11:00;98945.84;;;3.32;73.66
78741;BME280;68062;48.726;9.370;2023-03-03T02:13:27;98945.31;;;3.44;73.45
78741;BME280;68062;48.726;9.370;2023-03-03T02:15:54;98941.31;;;2.68;75.64
78741;BME280;68062;48.726;9.370;2023-03-03T02:18:22;98934.47;;;2.93;75.37
78741;BME280;68062;48.726;9.370;2023-03-03T02:20:54;98935.56;;;2.74;74.90
78741;BME280;68062;48.726;9.370;2023-03-03T02:23:26;98931.13;;;2.67;76.15
78741;BME280;68062;48.726;9.370;2023-03-03T02:26:08;98908.56;;;2.76;75.83
78741;BME280;68062;48.726;9.370;2023-03-03T02:28:36;98918.88;;;3.09;74.53
78741;BME280;68062;48.726;9.370;2023-03-03T02:31:06;98928.53;;;3.20;74.47
78741;BME280;68062;48.726;9.370;2023-03-03T02:33:35;98924.94;;;3.13;74.20
78741;BME280;68062;48.726;9.370;2023-03-03T02:36:01;98924.31;;;3.20;74.56
78741;BME280;68062;48.726;9.370;2023-03-03T02:38:31;98934.09;;;3.08;74.28
78741;BME280;68062;48.726;9.370;2023-03-03T02:41:06;98930.38;;;2.97;74.96
78741;BME280;68062;48.726;9.370;2023-03-03T02:43:43;98929.34;;;3.19;74.35
78741;BME280;68062;48.726;9.370;2023-03-03T02:46:10;98926.84;;;3.20;74.22
78741;BME280;68062;48.726;9.370;2023-03-03T02:48:37;98932.25;;;2.76;75.20
78741;BME280;68062;48.726;9.370;2023-03-03T02:51:03;98929.47;;;2.69;76.20
78741;BME280;68062;48.726;9.370;2023-03-03T02:53:30;98935.00;;;2.83;76.13
78741;BME280;68062;48.726;9.370;2023-03-03T02:55:56;98926.81;;;2.91;76.01
78741;BME280;68062;48.726;9.370;2023-03-03T02:58:23;98936.25;;;3.23;74.90
78741;BME280;68062;48.726;9.370;2023-03-03T03:00:51;98936.66;;;3.37;74.07
78741;BME280;68062;48.726;9.370;2023-03-03T03:03:17;98928.97;;;3.35;73.97
78741;BME280;68062;48.726;9.370;2023-03-03T03:05:44;98931.41;;;3.31;73.88
78741;BME280;68062;48.726;9.370;2023-03-03T03:08:10;98932.69;;;3.45;73.96
78741;BME280;68062;48.726;9.370;2023-03-03T03:10:36;98930.84;;;3.41;73.41
78741;BME280;68062;48.726;9.370;2023-03-03T03:13:03;98946.22;;;3.46;73.62
78741;BME280;68062;48.726;9.370;2023-03-03T03:15:29;98936.78;;;3.42;73.84
78741;BME280;68062;48.726;9.370;2023-03-03T03:17:57;98938.66;;;3.47;74.12
78741;BME280;68062;48.726;9.370;2023-03-03T03:20:24;98936.97;;;3.48;74.33
78741;BME280;68062;48.726;9.370;2023-03-03T03:22:51;98939.66;;;3.52;73.60
78741;BME280;68062;48.726;9.370;2023-03-03T03:25:17;98936.13;;;3.47;74.05
78741;BME280;68062;48.726;9.370;2023-03-03T03:27:44;98936.94;;;3.46;74.21
78741;BME280;68062;48.726;9.370;2023-03-03T03:30:11;98938.59;;;3.46;74.62
78741;BME280;68062;48.726;9.370;2023-03-03T03:32:38;98910.25;;;3.32;74.27
78741;BME280;68062;48.726;9.370;2023-03-03T03:35:07;98925.81;;;3.43;74.09
78741;BME280;68062;48.726;9.370;2023-03-03T03:37:33;98935.31;;;3.48;74.62
78741;BME280;68062;48.726;9.370;2023-03-03T03:40:00;98910.97;;;3.28;74.58
78741;BME280;68062;48.726;9.370;2023-03-03T03:42:26;98939.75;;;3.56;74.54
78741;BME280;68062;48.726;9.370;2023-03-03T03:44:52;98927.63;;;3.47;74.36
78741;BME280;68062;48.726;9.370;2023-03-03T03:47:19;98938.25;;;3.62;74.50
78741;BME280;68062;48.726;9.370;2023-03-03T03:49:45;98939.16;;;3.64;74.62
78741;BME280;68062;48.726;9.370;2023-03-03T03:52:13;98946.94;;;3.71;74.36
78741;BME280;68062;48.726;9.370;2023-03-03T03:54:39;98949.56;;;3.72;74.34
78741;BME280;68062;48.726;9.370;2023-03-03T03:57:06;98944.38;;;3.69;74.56
78741;BME280;68062;48.726;9.370;2023-03-03T03:59:32;98930.59;;;3.62;74.53
78741;BME280;68062;48.726;9.370;2023-03-03T04:01:59;98930.69;;;3.65;74.58
78741;BME280;68062;48.726;9.370;2023-03-03T04:04:25;98954.72;;;3.75;73.79
78741;BME280;68062;48.726;9.370;2023-03-03T04:06:52;98942.03;;;3.77;73.84
78741;BME280;68062;48.726;9.370;2023-03-03T04:09:20;98926.50;;;3.67;74.10
78741;BME280;68062;48.726;9.370;2023-03-03T04:11:46;98938.69;;;3.78;73.96
78741;BME280;68062;48.726;9.370;2023-03-03T04:14:13;98950.91;;;3.90;74.18
78741;BME280;68062;48.726;9.370;2023-03-03T04:16:39;98951.66;;;3.87;73.55
78741;BME280;68062;48.726;9.370;2023-03-03T04:19:05;98948.22;;;3.85;74.06
78741;BME280;68062;48.726;9.370;2023-03-03T04:21:32;98956.00;;;3.91;73.72
78741;BME280;68062;48.726;9.370;2023-03-03T04:23:58;98956.75;;;3.87;74.26
78741;BME280;68062;48.726;9.370;2023-03-03T04:26:26;98950.75;;;3.85;74.22
78741;BME280;68062;48.726;9.370;2023-03-03T04:28:52;98938.59;;;3.75;74.10
78741;BME280;68062;48.726;9.370;2023-03-03T04:31:19;98952.38;;;3.81;74.66
78741;BME280;68062;48.726;9.370;2023-03-03T04:33:45;98957.75;;;3.92;74.54
78741;BME280;68062;48.726;9.370;2023-03-03T04:36:12;98959.00;;;3.76;75.48
78741;BME280;68062;48.726;9.370;2023-03-03T04:38:38;98957.44;;;3.81;75.52
78741;BME280;68062;48.726;9.370;2023-03-03T04:41:04;98954.03;;;3.81;74.72
78741;BME280;68062;48.726;9.370;2023-03-03T04:43:32;98960.09;;;3.85;75.16
78741;BME280;68062;48.726;9.370;2023-03-03T04:45:59;98960.25;;;3.91;74.64
78741;BME280;68062;48.726;9.370;2023-03-03T04:48:25;98960.34;;;3.94;75.17
78741;BME280;68062;48.726;9.370;2023-03-03T04:50:53;98961.19;;;3.94;74.91
78741;BME280;68062;48.726;9.370;2023-03-03T04:53:20;98961.97;;;3.92;75.42
78741;BME280;68062;48.726;9.370;2023-03-03T04:55:49;98963.03;;;4.00;75.39
78741;BME280;68062;48.726;9.370;2023-03-03T04:58:15;98966.63;;;4.07;75.25
78741;BME280;68062;48.726;9.370;2023-03-03T05:00:45;98971.63;;;4.04;75.51
78741;BME280;68062;48.726;9.370;2023-03-03T05:03:11;98966.44;;;4.01;74.99
78741;BME280;68062;48.726;9.370;2023-03-03T05:05:39;98959.28;;;3.87;74.71
78741;BME280;68062;48.726;9.370;2023-03-03T05:08:07;98979.81;;;3.93;74.54
78741;BME280;68062;48.726;9.370;2023-03-03T05:10:33;98978.66;;;3.82;75.16
78741;BME280;68062;48.726;9.370;2023-03-03T05:13:00;98975.47;;;3.89;75.01
78741;BME280;68062;48.726;9.370;2023-03-03T05:15:26;98972.81;;;3.85;75.57
78741;BME280;68062;48.726;9.370;2023-03-03T05:17:54;98969.28;;;3.81;75.57
78741;BME280;68062;48.726;9.370;2023-03-03T05:20:21;98972.97;;;3.91;74.88
78741;BME280;68062;48.726;9.370;2023-03-03T05:22:47;98978.06;;;3.91;74.68
78741;BME280;68062;48.726;9.370;2023-03-03T05:25:14;98949.50;;;3.71;75.31
78741;BME280;68062;48.726;9.370;2023-03-03T05:27:40;98980.19;;;3.77;75.74
78741;BME280;68062;48.726;9.370;2023-03-03T05:30:09;98969.19;;;3.76;75.06
78741;BME280;68062;48.726;9.370;2023-03-03T05:32:36;98978.94;;;3.62;75.63
78741;BME280;68062;48.726;9.370;2023-03-03T05:35:05;98979.00;;;3.64;75.88
78741;BME280;68062;48.726;9.370;2023-03-03T05:37:31;98981.44;;;3.61;76.12
78741;BME280;68062;48.726;9.370;2023-03-03T05:39:58;98979.44;;;3.50;76.48
78741;BME280;68062;48.726;9.370;2023-03-03T05:42:24;98981.03;;;3.47;76.34
78741;BME280;68062;48.726;9.370;2023-03-03T05:44:51;98982.34;;;3.34;77.80
78741;BME280;68062;48.726;9.370;2023-03-03T05:47:17;98988.28;;;3.34;77.11
78741;BME280;68062;48.726;9.370;2023-03-03T05:49:43;98991.81;;;3.67;76.44
78741;BME280;68062;48.726;9.370;2023-03-03T05:52:11;98994.72;;;3.79;76.46
78741;BME280;68062;48.726;9.370;2023-03-03T05:54:38;98997.34;;;3.82;75.63
78741;BME280;68062;48.726;9.370;2023-03-03T05:57:05;99005.09;;;3.87;75.92
78741;BME280;68062;48.726;9.370;2023-03-03T05:59:31;98991.47;;;3.85;76.28
78741;BME280;68062;48.726;9.370;2023-03-03T06:01:58;98982.16;;;3.86;76.76
78741;BME280;68062;48.726;9.370;2023-03-03T06:04:24;98982.19;;;3.87;76.29
78741;BME280;68062;48.726;9.370;2023-03-03T06:06:50;99004.63;;;4.01;75.86
78741;BME280;68062;48.726;9.370;2023-03-03T06:09:18;98994.91;;;3.87;76.13
78741;BME280;68062;48.726;9.370;2023-03-03T06:11:45;99009.44;;;3.91;76.50
78741;BME280;68062;48.726;9.370;2023-03-03T06:14:11;99012.09;;;3.94;76.10
78741;BME280;68062;48.726;9.370;2023-03-03T06:16:38;99012.88;;;3.92;75.97
78741;BME280;68062;48.726;9.370;2023-03-03T06:19:04;99003.44;;;3.88;76.18
78741;BME280;68062;48.726;9.370;2023-03-03T06:21:31;98990.38;;;3.77;76.25
78741;BME280;68062;48.726;9.370;2023-03-03T06:23:57;99019.63;;;3.91;75.45
78741;BME280;68062;48.726;9.370;2023-03-03T06:26:25;99019.88;;;3.70;76.56
78741;BME280;68062;48.726;9.370;2023-03-03T06:28:51;99018.88;;;3.65;77.05
78741;BME280;68062;48.726;9.370;2023-03-03T06:31:19;99020.97;;;3.78;76.72
78741;BME280;68062;48.726;9.370;2023-03-03T06:33:46;98973.66;;;3.56;76.03
78741;BME280;68062;48.726;9.370;2023-03-03T06:36:12;99029.44;;;3.79;76.75
78741;BME280;68062;48.726;9.370;2023-03-03T06:38:39;99024.25;;;3.76;76.70
78741;BME280;68062;48.726;9.370;2023-03-03T06:41:05;99041.13;;;3.72;77.28
78741;BME280;68062;48.726;9.370;2023-03-03T06:43:34;99038.13;;;3.86;76.50
78741;BME280;68062;48.726;9.370;2023-03-03T06:46:02;99027.19;;;3.88;76.38
78741;BME280;68062;48.726;9.370;2023-03-03T06:48:29;99045.16;;;3.94;76.36
78741;BME280;68062;48.726;9.370;2023-03-03T06:50:55;99039.56;;;4.06;76.19
78741;BME280;68062;48.726;9.370;2023-03-03T06:53:22;99043.16;;;4.13;75.64
78741;BME280;68062;48.726;9.370;2023-03-03T06:55:49;99039.72;;;4.12;75.44
78741;BME280;68062;48.726;9.370;2023-03-03T06:58:16;99025.75;;;3.98;75.67
78741;BME280;68062;48.726;9.370;2023-03-03T07:00:48;99050.91;;;4.18;75.07
78741;BME280;68062;48.726;9.370;2023-03-03T07:03:21;99048.53;;;4.24;75.06
78741;BME280;68062;48.726;9.370;2023-03-03T07:05:48;99039.09;;;4.20;75.13
78741;BME280;68062;48.726;9.370;2023-03-03T07:08:17;99059.78;;;4.31;75.02
78741;BME280;68062;48.726;9.370;2023-03-03T07:10:45;99055.53;;;4.31;74.82
78741;BME280;68062;48.726;9.370;2023-03-03T07:13:20;99059.16;;;4.39;75.00
78741;BME280;68062;48.726;9.370;2023-03-03T07:15:51;99055.94;;;4.45;74.14
78741;BME280;68062;48.726;9.370;2023-03-03T07:18:27;99036.13;;;4.35;74.57
78741;BME280;68062;48.726;9.370;2023-03-03T07:20:56;99055.22;;;4.51;74.51
78741;BME280;68062;48.726;9.370;2023-03-03T07:23:25;99076.66;;;4.59;74.56
78741;BME280;68062;48.726;9.370;2023-03-03T07:25:53;99065.31;;;4.48;73.96
78741;BME280;68062;48.726;9.370;2023-03-03T07:28:23;99083.47;;;4.59;73.95
78741;BME280;68062;48.726;9.370;2023-03-03T07:30:52;99069.09;;;4.62;74.04
78741;BME280;68062;48.726;9.370;2023-03-03T07:33:24;99061.53;;;4.65;74.49
78741;BME280;68062;48.726;9.370;2023-03-03T07:35:52;99073.69;;;4.74;74.05
78741;BME280;68062;48.726;9.370;2023-03-03T07:38:24;99081.44;;;4.79;72.55
78741;BME280;68062;48.726;9.370;2023-03-03T07:40:52;99052.41;;;4.72;72.27
78741;BME280;68062;48.726;9.370;2023-03-03T07:43:28;99083.47;;;4.91;72.54
78741;BME280;68062;48.726;9.370;2023-03-03T07:46:01;99074.16;;;4.93;72.14
78741;BME280;68062;48.726;9.370;2023-03-03T07:48:30;99081.66;;;4.86;72.55
78741;BME280;68062;48.726;9.370;2023-03-03T07:51:03;99071.63;;;4.94;72.78
78741;BME280;68062;48.726;9.370;2023-03-03T07:53:33;99078.47;;;4.95;71.84
78741;BME280;68062;48.726;9.370;2023-03-03T07:56:02;99057.75;;;4.83;72.48
78741;BME280;68062;48.726;9.370;2023-03-03T07:58:36;99075.84;;;4.92;72.61
78741;BME280;68062;48.726;9.370;2023-03-03T08:01:26;99086.84;;;4.90;72.35
78741;BME280;68062;48.726;9.370;2023-03-03T08:03:54;99081.94;;;4.65;72.23
78741;BME280;68062;48.726;9.370;2023-03-03T08:06:30;99081.34;;;4.44;73.46
78741;BME280;68062;48.726;9.370;2023-03-03T08:09:01;99087.25;;;4.42;74.06
78741;BME280;68062;48.726;9.370;2023-03-03T08:11:52;99080.09;;;4.29;74.16
78741;BME280;68062;48.726;9.370;2023-03-03T08:14:24;99091.69;;;3.90;75.06
78741;BME280;68062;48.726;9.370;2023-03-03T08:16:52;99087.28;;;4.13;74.91
78741;BME280;68062;48.726;9.370;2023-03-03T08:19:20;99085.06;;;4.24;74.58
78741;BME280;68062;48.726;9.370;2023-03-03T08:21:46;99073.00;;;4.19;74.16
78741;BME280;68062;48.726;9.370;2023-03-03T08:24:13;99090.53;;;4.38;74.11
78741;BME280;68062;48.726;9.370;2023-03-03T08:26:40;99093.34;;;3.88;73.97
78741;BME280;68062;48.726;9.370;2023-03-03T08:29:06;99086.13;;;3.75;74.62
78741;BME280;68062;48.726;9.370;2023-03-03T08:31:33;99086.09;;;4.02;74.08
78741;BME280;68062;48.726;9.370;2023-03-03T08:34:00;99083.56;;;4.02;73.20
78741;BME280;68062;48.726;9.370;2023-03-03T08:36:28;99079.03;;;3.92;73.03
78741;BME280;68062;48.726;9.370;2023-03-03T08:38:55;99089.84;;;3.85;72.92
78741;BME280;68062;48.726;9.370;2023-03-03T08:41:21;99091.50;;;3.84;73.54
78741;BME280;68062;48.726;9.370;2023-03-03T08:43:50;99084.94;;;3.91;72.80
78741;BME280;68062;48.726;9.370;2023-03-03T08:46:16;99090.56;;;4.09;72.01
78741;BME280;68062;48.726;9.370;2023-03-03T08:48:43;99081.88;;;4.32;70.23
78741;BME280;68062;48.726;9.370;2023-03-03T08:51:11;99082.94;;;4.40;70.74
78741;BME280;68062;48.726;9.370;2023-03-03T08:53:37;99087.69;;;4.58;69.53
78741;BME280;68062;48.726;9.370;2023-03-03T08:56:04;99096.38;;;4.66;68.19
78741;BME280;68062;48.726;9.370;2023-03-03T08:58:31;99090.03;;;4.50;67.83
78741;BME280;68062;48.726;9.370;2023-03-03T09:00:57;99088.47;;;4.55;67.62
78741;BME280;68062;48.726;9.370;2023-03-03T09:03:24;99102.22;;;4.62;68.17
78741;BME280;68062;48.726;9.370;2023-03-03T09:05:50;99103.44;;;4.75;67.82
78741;BME280;68062;48.726;9.370;2023-03-03T09:08:18;99101.16;;;4.86;67.81
78741;BME280;68062;48.726;9.370;2023-03-03T09:10:44;99107.31;;;4.94;67.32
78741;BME280;68062;48.726;9.370;2023-03-03T09:13:13;99110.00;;;4.99;67.17
78741;BME280;68062;48.726;9.370;2023-03-03T09:15:41;99108.47;;;5.06;66.57
78741;BME280;68062;48.726;9.370;2023-03-03T09:18:15;99117.47;;;5.25;65.74
78741;BME280;68062;48.726;9.370;2023-03-03T09:20:43;99117.19;;;5.49;65.62
78741;BME280;68062;48.726;9.370;2023-03-03T09:23:27;99115.56;;;5.53;65.24
78741;BME280;68062;48.726;9.370;2023-03-03T09:25:54;99120.06;;;5.62;64.88
78741;BME280;68062;48.726;9.370;2023-03-03T09:28:24;99110.53;;;5.54;65.36
78741;BME280;68062;48.726;9.370;2023-03-03T09:30:52;99107.91;;;5.53;65.78
78741;BME280;68062;48.726;9.370;2023-03-03T09:33:25;99118.91;;;5.85;63.94
78741;BME280;68062;48.726;9.370;2023-03-03T09:35:57;99108.97;;;5.99;64.15
78741;BME280;68062;48.726;9.370;2023-03-03T09:38:29;99106.59;;;6.06;63.45
78741;BME280;68062;48.726;9.370;2023-03-03T09:41:13;99110.78;;;6.02;62.93
78741;BME280;68062;48.726;9.370;2023-03-03T09:43:48;99111.22;;;6.22;63.37
78741;BME280;68062;48.726;9.370;2023-03-03T09:46:26;99080.81;;;6.35;62.95
78741;BME280;68062;48.726;9.370;2023-03-03T09:49:09;99109.44;;;6.61;62.81
78741;BME280;68062;48.726;9.370;2023-03-03T09:51:50;99108.81;;;6.73;62.48
78741;BME280;68062;48.726;9.370;2023-03-03T09:54:31;99104.66;;;6.80;61.98
78741;BME280;68062;48.726;9.370;2023-03-03T09:57:09;99111.44;;;6.76;62.05
78741;BME280;68062;48.726;9.370;2023-03-03T09:59:46;99105.72;;;6.91;61.87
78741;BME280;68062;48.726;9.370;2023-03-03T10:02:27;99102.78;;;7.17;61.16
78741;BME280;68062;48.726;9.370;2023-03-03T10:05:10;99104.53;;;7.19;60.86
78741;BME280;68062;48.726;9.370;2023-03-03T10:07:47;99091.84;;;7.26;60.59
78741;BME280;68062;48.726;9.370;2023-03-03T10:10:28;99109.66;;;7.19;61.04
78741;BME280;68062;48.726;9.370;2023-03-03T10:13:06;99108.16;;;7.32;60.68
78741;BME280;68062;48.726;9.370;2023-03-03T10:15:41;99104.84;;;7.38;60.45
78741;BME280;68062;48.726;9.370;2023-03-03T10:18:20;99104.31;;;7.59;59.76
78741;BME280;68062;48.726;9.370;2023-03-03T10:21:01;99106.38;;;7.28;60.50
78741;BME280;68062;48.726;9.370;2023-03-03T10:23:51;99107.28;;;7.30;60.82
78741;BME280;68062;48.726;9.370;2023-03-03T10:26:28;99104.97;;;7.44;60.59
78741;BME280;68062;48.726;9.370;2023-03-03T10:29:18;99103.81;;;7.80;59.16
78741;BME280;68062;48.726;9.370;2023-03-03T10:32:15;99103.38;;;8.11;58.51
78741;BME280;68062;48.726;9.370;2023-03-03T10:34:54;99107.53;;;8.04;58.62
78741;BME280;68062;48.726;9.370;2023-03-03T10:37:32;99102.56;;;8.17;58.14
78741;BME280;68062;48.726;9.370;2023-03-03T10:40:15;99095.72;;;8.14;58.53
78741;BME280;68062;48.726;9.370;2023-03-03T10:42:58;99099.03;;;8.07;58.37
78741;BME280;68062;48.726;9.370;2023-03-03T10:45:39;99093.66;;;7.87;59.13
78741;BME280;68062;48.726;9.370;2023-03-03T10:48:28;99092.84;;;7.91;59.30
78741;BME280;68062;48.726;9.370;2023-03-03T10:51:03;99094.69;;;8.01;59.32
78741;BME280;68062;48.726;9.370;2023-03-03T10:53:41;99087.25;;;8.18;58.63
78741;BME280;68062;48.726;9.370;2023-03-03T10:56:21;99076.31;;;8.32;57.90
78741;BME280;68062;48.726;9.370;2023-03-03T10:59:03;99074.53;;;8.28;57.84
78741;BME280;68062;48.726;9.370;2023-03-03T11:01:42;99082.03;;;8.12;58.41
78741;BME280;68062;48.726;9.370;2023-03-03T11:04:29;99085.56;;;8.20;58.69
78741;BME280;68062;48.726;9.370;2023-03-03T11:07:05;99086.44;;;8.22;58.19
78741;BME280;68062;48.726;9.370;2023-03-03T11:09:52;99081.38;;;8.29;58.60
78741;BME280;68062;48.726;9.370;2023-03-03T11:12:36;99077.84;;;8.19;58.92
78741;BME280;68062;48.726;9.370;2023-03-03T11:15:40;99081.66;;;8.49;59.03
78741;BME280;68062;48.726;9.370;2023-03-03T11:18:20;99083.38;;;8.50;58.52
78741;BME280;68062;48.726;9.370;2023-03-03T11:20:55;99085.34;;;8.73;56.91
78741;BME280;68062;48.726;9.370;2023-03-03T11:23:57;99090.47;;;8.71;57.90
78741;BME280;68062;48.726;9.370;2023-03-03T11:26:51;99090.31;;;8.60;58.33
78741;BME280;68062;48.726;9.370;2023-03-03T11:29:34;99092.28;;;8.83;57.41
78741;BME280;68062;48.726;9.370;2023-03-03T11:32:17;99087.44;;;8.34;59.64
78741;BME280;68062;48.726;9.370;2023-03-03T11:34:55;99065.66;;;8.02;61.07
78741;BME280;68062;48.726;9.370;2023-03-03T11:37:28;99087.97;;;8.09;60.48
78741;BME280;68062;48.726;9.370;2023-03-03T11:40:06;99094.69;;;8.00;61.69
78741;BME280;68062;48.726;9.370;2023-03-03T11:42:43;99093.75;;;7.94;61.68
78741;BME280;68062;48.726;9.370;2023-03-03T11:45:16;99064.34;;;7.12;62.96
78741;BME280;68062;48.726;9.370;2023-03-03T11:47:51;99090.09;;;7.21;64.60
78741;BME280;68062;48.726;9.370;2023-03-03T11:50:21;99089.81;;;7.07;63.79
78741;BME280;68062;48.726;9.370;2023-03-03T11:52:54;99083.34;;;7.28;63.73
78741;BME280;68062;48.726;9.370;2023-03-03T11:55:30;99075.59;;;7.22;63.42
78741;BME280;68062;48.726;9.370;2023-03-03T11:58:06;99068.28;;;7.45;62.63
78741;BME280;68062;48.726;9.370;2023-03-03T12:00:37;99062.56;;;7.62;63.13
78741;BME280;68062;48.726;9.370;2023-03-03T12:03:15;99050.97;;;7.86;62.71
78741;BME280;68062;48.726;9.370;2023-03-03T12:05:52;99058.56;;;7.79;62.40
78741;BME280;68062;48.726;9.370;2023-03-03T12:08:33;99053.91;;;7.54;62.26
78741;BME280;68062;48.726;9.370;2023-03-03T12:11:07;99054.84;;;7.60;63.06
78741;BME280;68062;48.726;9.370;2023-03-03T12:13:43;99053.09;;;7.56;62.86
78741;BME280;68062;48.726;9.370;2023-03-03T12:16:15;99055.84;;;7.69;62.45
78741;BME280;68062;48.726;9.370;2023-03-03T12:19:08;99051.81;;;7.85;62.84
78741;BME280;68062;48.726;9.370;2023-03-03T12:21:55;99044.16;;;7.88;61.75
78741;BME280;68062;48.726;9.370;2023-03-03T12:24:35;99046.25;;;7.55;62.34
78741;BME280;68062;48.726;9.370;2023-03-03T12:27:16;99046.44;;;7.68;62.78
78741;BME280;68062;48.726;9.370;2023-03-03T12:30:00;99044.94;;;7.82;62.38
78741;BME280;68062;48.726;9.370;2023-03-03T12:32:46;99042.53;;;7.94;62.08
78741;BME280;68062;48.726;9.370;2023-03-03T12:35:25;99044.03;;;7.80;61.83
78741;BME280;68062;48.726;9.370;2023-03-03T12:38:03;99041.56;;;7.86;61.84
78741;BME280;68062;48.726;9.370;2023-03-03T12:40:33;99042.13;;;8.30;60.78
78741;BME280;68062;48.726;9.370;2023-03-03T12:43:11;99039.63;;;8.36;59.94
78741;BME280;68062;48.726;9.370;2023-03-03T12:45:48;99022.00;;;8.64;59.01
78741;BME280;68062;48.726;9.370;2023-03-03T12:48:20;99039.25;;;8.77;58.57
78741;BME280;68062;48.726;9.370;2023-03-03T12:50:58;99032.16;;;8.54;59.00
78741;BME280;68062;48.726;9.370;2023-03-03T12:53:39;99032.16;;;8.54;60.10
78741;BME280;68062;48.726;9.370;2023-03-03T12:56:12;99028.78;;;8.60;59.94
78741;BME280;68062;48.726;9.370;2023-03-03T12:58:52;99026.34;;;8.71;58.60
78741;BME280;68062;48.726;9.370;2023-03-03T13:01:39;99027.06;;;8.58;59.27
78741;BME280;68062;48.726;9.370;2023-03-03T13:04:12;99036.31;;;8.48;59.35
78741;BME280;68062;48.726;9.370;2023-03-03T13:06:51;99027.91;;;8.57;59.63
78741;BME280;68062;48.726;9.370;2023-03-03T13:09:27;99025.13;;;8.39;59.78
78741;BME280;68062;48.726;9.370;2023-03-03T13:12:07;99037.09;;;8.40;60.43
78741;BME280;68062;48.726;9.370;2023-03-03T13:14:44;99037.09;;;8.39;59.75
78741;BME280;68062;48.726;9.370;2023-03-03T13:17:17;99024.56;;;8.64;59.80
78741;BME280;68062;48.726;9.370;2023-03-03T13:19:50;99026.47;;;8.83;59.50
78741;BME280;68062;48.726;9.370;2023-03-03T13:22:31;99025.00;;;9.12;58.61
78741;BME280;68062;48.726;9.370;2023-03-03T13:25:03;99025.09;;;9.24;57.39
78741;BME280;68062;48.726;9.370;2023-03-03T13:27:36;99019.78;;;9.03;57.59
78741;BME280;68062;48.726;9.370;2023-03-03T13:30:14;99017.97;;;8.89;57.43
78741;BME280;68062;48.726;9.370;2023-03-03T13:32:46;99012.19;;;9.13;57.31